Sunday, January 20, 2019, 2:15 AM EST
Back to Local

KJYO, Leesburg / Godfrey

Location: Leesburg, VA, United States Lat: 39.083
Local Time: 2:15 AM EST ( 7:15 GMT) Lon: -77.567
Time Zone: US/Eastern Elev: 390 ft

Show me the last for .
Show Decoded

2019-01-20 01:35 METAR KJYO 200635Z AUTO 03004KT 4SM UP OVC003 00/00 A2957 RMK AO2 P0005 =
2019-01-20 01:15 METAR KJYO 200615Z AUTO 04004KT 3SM -SN OVC003 00/00 A2959 RMK AO2 P0003 =
2019-01-20 00:55 METAR KJYO 200555Z AUTO 03003KT 3SM UP OVC003 00/00 A2961 RMK AO2 P0012 =
2019-01-20 00:35 METAR KJYO 200535Z AUTO 04003KT 2 1/2SM -SN OVC005 00/00 A2963 RMK AO2 P0009 =
2019-01-20 00:15 METAR KJYO 200515Z AUTO 03005KT 2 1/2SM -SN OVC003 00/00 A2965 RMK AO2 P0004 =
2019-01-19 23:55 METAR KJYO 200455Z AUTO 36003KT 2 1/2SM -SN OVC003 00/00 A2968 RMK AO2 P0011 =
2019-01-19 23:35 METAR KJYO 200435Z AUTO 02004KT 2 1/2SM -SN OVC003 00/00 A2967 RMK AO2 P0006 =
2019-01-19 23:15 METAR KJYO 200415Z AUTO 02003KT 2 1/2SM UP OVC003 00/00 A2968 RMK AO2 P0002 =
2019-01-19 22:55 METAR KJYO 200355Z AUTO 03004KT 2SM -SN OVC003 00/00 A2970 RMK AO2 P0013 =
2019-01-19 22:35 METAR KJYO 200335Z AUTO 02005KT 2SM -SN BKN003 OVC008 00/00 A2971 RMK AO2 P0008
                 =
2019-01-19 22:15 METAR KJYO 200315Z AUTO 03005KT 2SM -SN BKN003 OVC011 00/00 A2974 RMK AO2 P0004
                 =
2019-01-19 21:55 METAR KJYO 200255Z AUTO 03005KT 2SM UP BKN003 OVC008 00/00 A2975 RMK AO2 P0014 =
2019-01-19 21:35 METAR KJYO 200235Z AUTO 02005KT 1 3/4SM -SN OVC003 00/00 A2975 RMK AO2 P0010 =
2019-01-19 21:10 METAR KJYO 200210Z AUTO 04004KT 1 1/2SM -SN OVC003 01/01 A2977 RMK AO2 P0003 =
2019-01-19 20:55 METAR KJYO 200155Z AUTO 02005KT 1 1/2SM -SN OVC003 01/01 A2978 RMK AO2 P0010 =
2019-01-19 20:35 METAR KJYO 200135Z AUTO 03004KT 1 3/4SM UP OVC003 01/01 A2980 RMK AO2 P0006 =
2019-01-19 20:15 METAR KJYO 200115Z AUTO 04004KT 1 1/4SM -SN BKN005 OVC008 01/01 A2981 RMK AO2
                 P0004 =
2019-01-19 19:55 METAR KJYO 200055Z AUTO 02005KT 2SM UP OVC005 01/01 A2983 RMK AO2 P0011 =
2019-01-19 19:35 METAR KJYO 200035Z AUTO 00000KT 1 3/4SM -SN OVC006 01/01 A2987 RMK AO2 P0008 =
2019-01-19 19:15 METAR KJYO 200015Z AUTO 06005KT 1 1/2SM -SN OVC006 01/01 A2985 RMK AO2 P0004 =
2019-01-19 18:55 METAR KJYO 192355Z AUTO 06005KT 2SM -SN OVC004 01/01 A2987 RMK AO2 P0011 =
2019-01-19 18:35 METAR KJYO 192335Z AUTO 06006KT 1 3/4SM UP OVC004 01/01 A2988 RMK AO2 P0008 =
2019-01-19 18:15 METAR KJYO 192315Z AUTO 05005KT 1 1/2SM UP OVC004 01/01 A2989 RMK AO2 P0003 =
2019-01-19 17:55 METAR KJYO 192255Z AUTO 09004KT 2SM RA OVC006 02/02 A2990 RMK AO2 P0003 =
2019-01-19 17:35 METAR KJYO 192235Z AUTO 09005KT 2SM -RA OVC006 02/02 A2991 RMK AO2 P0002 =
2019-01-19 17:15 METAR KJYO 192215Z AUTO 12006KT 2SM RA OVC006 02/02 A2993 RMK AO2 P0001 =
2019-01-19 16:55 METAR KJYO 192155Z AUTO 13005KT 1SM RA OVC008 02/02 A2994 RMK AO2 P0002 =
2019-01-19 16:35 METAR KJYO 192135Z AUTO 14006KT 2SM -RA OVC010 02/02 A2996 RMK AO2 P0001 =
2019-01-19 16:15 METAR KJYO 192115Z AUTO 13007KT 2SM -RA OVC010 02/02 A2997 RMK AO2 P0001 =
2019-01-19 15:55 METAR KJYO 192055Z AUTO 12007KT 4SM BR OVC012 03/02 A2997 RMK AO2 =
2019-01-19 15:35 METAR KJYO 192035Z AUTO 12004KT 3SM BR OVC012 02/02 A3000 RMK AO2 =
2019-01-19 15:15 METAR KJYO 192015Z AUTO 11005KT 3SM BR OVC012 03/02 A3002 RMK AO2 =
2019-01-19 14:55 METAR KJYO 191955Z AUTO 12005KT 5SM BR OVC014 03/02 A3003 RMK AO2 =
2019-01-19 14:35 METAR KJYO 191935Z AUTO 11006KT 5SM BR OVC014 03/02 A3003 RMK AO2 =
2019-01-19 14:15 METAR KJYO 191915Z AUTO 13005KT 5SM BR OVC014 03/01 A3006 RMK AO2 =
2019-01-19 13:55 METAR KJYO 191855Z AUTO 12005KT 5SM BR OVC014 03/01 A3006 RMK AO2 =
2019-01-19 13:35 METAR KJYO 191835Z AUTO 12005KT 7SM BKN016 BKN024 OVC042 03/01 A3007 RMK AO2 =
2019-01-19 13:15 METAR KJYO 191815Z AUTO 15007G14KT 7SM SCT016 BKN046 OVC049 03/01 A3008 RMK AO2
                 =
2019-01-19 12:55 METAR KJYO 191755Z AUTO 16009G15KT 10SM SCT018 SCT029 OVC047 03/01 A3010 RMK AO2
                 =
2019-01-19 12:35 METAR KJYO 191735Z AUTO 14009KT 10SM SCT026 SCT034 OVC047 03/01 A3011 RMK AO2 =
2019-01-19 12:15 METAR KJYO 191715Z AUTO 14007KT 10SM SCT021 BKN027 OVC047 03/01 A3013 RMK AO2 =
2019-01-19 11:55 METAR KJYO 191655Z AUTO 13008KT 7SM SCT024 BKN041 OVC049 03/01 A3015 RMK AO2 =
2019-01-19 11:35 METAR KJYO 191635Z AUTO 14006KT 5SM -RA OVC024 03/01 A3016 RMK AO2 =
2019-01-19 11:15 METAR KJYO 191615Z AUTO 14004KT 7SM OVC022 03/01 A3018 RMK AO2 =
2019-01-19 10:55 METAR KJYO 191555Z AUTO 13004KT 7SM OVC022 03/01 A3019 RMK AO2 =
2019-01-19 10:35 METAR KJYO 191535Z AUTO 15003KT 7SM OVC018 02/01 A3020 RMK AO2 =
2019-01-19 10:15 METAR KJYO 191515Z AUTO 13004KT 5SM BR OVC018 02/01 A3019 RMK AO2 =
2019-01-19 09:55 METAR KJYO 191455Z AUTO 12003KT 5SM BR OVC018 02/01 A3020 RMK AO2 =
2019-01-19 09:35 METAR KJYO 191435Z AUTO 13003KT 7SM OVC020 02/01 A3020 RMK AO2 =
2019-01-19 09:15 METAR KJYO 191415Z AUTO 11004KT 7SM SCT020 BKN025 OVC032 02/01 A3020 RMK AO2 =
2019-01-19 08:55 METAR KJYO 191355Z AUTO 11004KT 10SM SCT027 OVC032 02/01 A3020 RMK AO2 =
2019-01-19 08:35 METAR KJYO 191335Z AUTO 08004KT 10SM BKN025 OVC032 02/01 A3020 RMK AO2 =
2019-01-19 08:15 METAR KJYO 191315Z AUTO 00000KT 10SM OVC025 01/01 A3020 RMK AO2 =
2019-01-19 07:55 METAR KJYO 191255Z AUTO 00000KT 10SM BKN025 OVC037 01/01 A3020 RMK AO2 =
2019-01-19 07:35 METAR KJYO 191235Z AUTO 00000KT 10SM SCT027 OVC035 01/01 A3020 RMK AO2 =
2019-01-19 07:15 METAR KJYO 191215Z AUTO 00000KT 10SM SCT025 SCT031 OVC037 01/01 A3019 RMK AO2 =
2019-01-19 06:55 METAR KJYO 191155Z AUTO 00000KT 10SM OVC037 01/01 A3019 RMK AO2 =
2019-01-19 06:35 METAR KJYO 191135Z AUTO 00000KT 10SM OVC037 01/01 A3018 RMK AO2 =
2019-01-19 06:15 METAR KJYO 191115Z AUTO 00000KT 10SM OVC037 01/01 A3018 RMK AO2 =
2019-01-19 05:55 METAR KJYO 191055Z AUTO 00000KT 7SM OVC037 00/00 A3018 RMK AO2 =
2019-01-19 05:35 METAR KJYO 191035Z AUTO 00000KT 10SM OVC037 01/01 A3018 RMK AO2 =
2019-01-19 05:15 METAR KJYO 191015Z AUTO 00000KT 10SM BKN037 OVC045 01/01 A3018 RMK AO2 =
2019-01-19 04:55 METAR KJYO 190955Z AUTO 00000KT 10SM SCT037 OVC045 01/01 A3018 RMK AO2 =
2019-01-19 04:35 METAR KJYO 190935Z AUTO 00000KT 10SM BKN037 OVC045 00/00 A3019 RMK AO2 =
2019-01-19 04:15 METAR KJYO 190915Z AUTO 00000KT 10SM BKN037 OVC045 00/00 A3019 RMK AO2 =
2019-01-19 03:55 METAR KJYO 190855Z AUTO 00000KT 10SM BKN037 OVC045 01/01 A3020 RMK AO2 =
2019-01-19 03:35 METAR KJYO 190835Z AUTO 00000KT 10SM BKN037 OVC045 00/00 A3020 RMK AO2 =
2019-01-19 03:15 METAR KJYO 190815Z AUTO 00000KT 10SM BKN037 OVC046 00/00 A3020 RMK AO2 =
2019-01-19 02:55 METAR KJYO 190755Z AUTO 00000KT 10SM SCT037 OVC048 01/01 A3020 RMK AO2 =
2019-01-19 02:35 METAR KJYO 190735Z AUTO 00000KT 10SM SCT039 OVC048 01/01 A3020 RMK AO2 =

Support USWX by starting your Amazon purchase here.